createdAt,value
2024-03-28T00:05:49.998Z,82
2024-03-28T00:14:05.490Z,82
2024-03-28T00:22:20.995Z,82
2024-03-28T00:30:36.526Z,82.5
2024-03-28T00:38:52.031Z,82.5
2024-03-28T00:47:07.597Z,82.5
2024-03-28T00:55:23.204Z,82.5
2024-03-28T01:11:54.100Z,83
2024-03-28T01:20:09.614Z,83.5
2024-03-28T01:28:25.138Z,83
2024-03-28T01:36:40.587Z,83
2024-03-28T01:44:56.120Z,83.5
2024-03-28T01:53:11.595Z,83.5
2024-03-28T02:01:27.348Z,83.5
2024-03-28T02:09:42.683Z,83.5
2024-03-28T02:17:58.207Z,83
2024-03-28T02:26:13.687Z,82.5
2024-03-28T02:34:29.252Z,82
2024-03-28T02:42:44.835Z,82
2024-03-28T02:51:00.418Z,82
2024-03-28T02:59:15.879Z,80
2024-03-28T03:07:31.490Z,80.5
2024-03-28T03:15:46.975Z,82
2024-03-28T03:24:02.593Z,81.5
2024-03-28T03:32:18.084Z,81
2024-03-28T03:40:33.721Z,80.5
2024-03-28T03:57:04.923Z,79.5
2024-03-28T04:05:20.457Z,79.5
2024-03-28T04:14:14.301Z,79
2024-03-28T04:21:51.674Z,78
2024-03-28T04:30:07.278Z,77
2024-03-28T04:38:22.830Z,78
2024-03-28T04:46:38.399Z,78
2024-03-28T04:54:53.962Z,77.5
2024-03-28T05:03:09.596Z,78
2024-03-28T05:11:25.753Z,78
2024-03-28T05:19:40.947Z,77.5
2024-03-28T05:27:56.422Z,78.5
2024-03-28T05:44:27.585Z,80
2024-03-28T05:52:43.227Z,81.5
2024-03-28T06:00:58.753Z,82
2024-03-28T06:09:14.301Z,82
2024-03-28T06:17:29.962Z,82.5
2024-03-28T06:25:45.504Z,83.5
2024-03-28T06:34:01.087Z,84.5
2024-03-28T06:42:16.618Z,85
2024-03-28T06:50:32.219Z,86
2024-03-28T06:58:47.794Z,86.5
2024-03-28T07:07:03.353Z,87
2024-03-28T07:15:18.953Z,87.5
2024-03-28T07:23:34.544Z,87.5
2024-03-28T07:31:50.273Z,87.5
2024-03-28T07:40:05.727Z,88
2024-03-28T07:48:21.362Z,88
2024-03-28T07:56:36.966Z,87.5
2024-03-28T08:04:52.577Z,87
2024-03-28T08:13:08.244Z,85.5
2024-03-28T08:21:23.920Z,84.5
2024-03-28T08:29:39.580Z,82
2024-03-28T08:37:55.318Z,79
2024-03-28T08:46:11.012Z,76
2024-03-28T08:54:26.744Z,72.5
2024-03-28T09:02:42.508Z,71
2024-03-28T09:10:58.208Z,71
2024-03-28T09:19:13.986Z,70
2024-03-28T09:27:29.751Z,67
2024-03-28T09:35:45.553Z,64.5
2024-03-28T09:44:01.438Z,64.5
2024-03-28T09:52:17.150Z,61.5
2024-03-28T10:00:32.882Z,60
2024-03-28T10:08:48.703Z,57
2024-03-28T10:17:04.480Z,56
2024-03-28T10:25:20.263Z,57
2024-03-28T10:33:36.058Z,57
2024-03-28T10:41:51.876Z,55
2024-03-28T10:58:23.560Z,55
2024-03-28T11:06:39.309Z,57.5
2024-03-28T11:23:10.948Z,49.5
2024-03-28T11:31:26.769Z,48
2024-03-28T11:39:42.578Z,49
2024-03-28T11:47:58.456Z,50.5
2024-03-28T11:56:14.244Z,52.5
2024-03-28T12:04:30.197Z,53
2024-03-28T12:12:45.942Z,48.5
2024-03-28T12:21:01.782Z,48.5
2024-03-28T12:29:17.573Z,50
2024-03-28T12:37:33.414Z,50.5
2024-03-28T12:45:49.262Z,49
2024-03-28T12:54:05.123Z,46.5
2024-03-28T13:02:20.999Z,47.5
2024-03-28T13:10:37.064Z,46.5
2024-03-28T13:18:52.693Z,45
2024-03-28T13:27:22.252Z,46
2024-03-28T13:35:24.438Z,47
2024-03-28T13:43:40.389Z,45.5
2024-03-28T13:51:56.216Z,43.5
2024-03-28T14:00:12.099Z,42.5
2024-03-28T14:08:28.064Z,38.5
2024-03-28T14:16:44.290Z,35
2024-03-28T14:25:00.226Z,34.5
2024-03-28T14:33:16.338Z,34.5
2024-03-28T14:41:32.501Z,32.5
2024-03-28T14:49:48.661Z,33.5
2024-03-28T14:58:04.830Z,32.5
2024-03-28T15:06:21.011Z,34
2024-03-28T15:14:37.203Z,36
2024-03-28T15:22:53.429Z,36.5
2024-03-28T15:39:25.718Z,38.5
2024-03-28T15:47:41.742Z,39
2024-03-28T15:55:57.794Z,37
2024-03-28T16:04:16.543Z,36
2024-03-28T16:12:29.943Z,35.5
2024-03-28T16:20:46.019Z,35
2024-03-28T16:29:06.658Z,35
2024-03-28T16:37:18.246Z,34.5
2024-03-28T16:45:34.436Z,34.5
2024-03-28T16:53:50.518Z,34.5
2024-03-28T17:02:06.606Z,35
2024-03-28T17:10:22.670Z,35
2024-03-28T17:18:38.761Z,35.5
2024-03-28T17:26:54.783Z,41.5
2024-03-28T17:35:10.810Z,42
2024-03-28T17:43:26.716Z,43
2024-03-28T17:51:42.647Z,43
2024-03-28T17:59:58.587Z,42
2024-03-28T18:08:14.409Z,42.5
2024-03-28T18:16:30.290Z,43
2024-03-28T18:24:46.177Z,44
2024-03-28T18:33:02.050Z,45.5
2024-03-28T18:41:17.884Z,46.5
2024-03-28T18:49:33.672Z,47.5
2024-03-28T19:06:05.418Z,48.5
2024-03-28T19:14:21.201Z,49
2024-03-28T19:22:36.971Z,49
2024-03-28T19:30:52.779Z,49
2024-03-28T19:39:11.374Z,49
2024-03-28T19:47:24.426Z,48.5
2024-03-28T19:55:40.170Z,48.5
2024-03-28T20:03:55.950Z,48
2024-03-28T20:20:27.529Z,48.5
2024-03-28T20:28:43.266Z,49.5
2024-03-28T20:36:59.064Z,51
2024-03-28T20:45:14.876Z,51.5
2024-03-28T20:53:30.746Z,52
2024-03-28T21:01:46.429Z,52
2024-03-28T21:10:02.248Z,52
2024-03-28T21:18:17.987Z,52
2024-03-28T21:26:33.808Z,52
2024-03-28T21:34:49.596Z,52.5
2024-03-28T21:43:05.414Z,53
2024-03-28T21:51:21.174Z,53.5
2024-03-28T21:59:37.058Z,55
2024-03-28T22:07:52.772Z,56
2024-03-28T22:16:08.522Z,57
2024-03-28T22:24:24.268Z,57.5
2024-03-28T22:32:40.045Z,58
2024-03-28T22:40:55.789Z,58
2024-03-28T22:49:11.589Z,58.5
2024-03-28T22:57:27.303Z,58
2024-03-28T23:05:43.181Z,58.5
2024-03-28T23:13:58.807Z,56.5
2024-03-28T23:22:14.572Z,56
2024-03-28T23:30:30.263Z,56.5
2024-03-28T23:38:48.723Z,56.5
2024-03-28T23:47:01.791Z,57
2024-03-28T23:55:17.508Z,58
